Station Historical Data
Daily Summary for March 22, 2017 Units:  English    Metric   Both
« Previous Day
Next Day »
Daily Weekly Monthly Yearly Custom
  High: Low: Average:
Temperature: 32.7 °F 18.4 °F 24.4 °F
Dew Point: 25.0 °F 2.0 °F 8.6 °F
Humidity: 73% 38% 51%
Wind Speed: 13.0mph 0.0mph 5.1mph
Wind Gust: 22.0mph - -
Wind- - WNW
Pressure: 30.57 in 30.07 in -
Precipitation: 0.00 in    
Historical Graphs
 
 
Tabular Data for March 22, 2017
Time Temperature Dew Point Pressure Wind Wind Speed Wind Gust Humidity Rainfall Rate (Hourly)
00:04 32.7 °F 25.0 °F 30.07 in NNW 7.0 mph 16.0 mph 73% 0.00 in
00:09 32.7 °F 25.0 °F 30.07 in NNW 6.0 mph 16.0 mph 73% 0.00 in
00:14 32.4 °F 23.7 °F 30.08 in NNW 7.0 mph 15.0 mph 70% 0.00 in
00:19 32.3 °F 22.9 °F 30.08 in NNW 7.0 mph 15.0 mph 68% 0.00 in
00:24 32.2 °F 22.1 °F 30.08 in North 8.0 mph 18.0 mph 66% 0.00 in
00:29 32.2 °F 22.1 °F 30.08 in NW 3.0 mph 13.0 mph 66% 0.00 in
00:34 32.1 °F 22.0 °F 30.08 in NW 3.0 mph 13.0 mph 66% 0.00 in
00:39 32.0 °F 21.6 °F 30.08 in NNW 6.0 mph 12.0 mph 65% 0.00 in
00:44 32.0 °F 21.6 °F 30.09 in NW 4.0 mph 14.0 mph 65% 0.00 in
00:49 31.9 °F 21.1 °F 30.09 in North 7.0 mph 14.0 mph 64% 0.00 in
00:54 31.9 °F 20.7 °F 30.09 in NNW 7.0 mph 13.0 mph 63% 0.00 in
00:59 31.7 °F 20.5 °F 30.09 in NW 5.0 mph 13.0 mph 63% 0.00 in
01:04 31.7 °F 20.5 °F 30.10 in NNW 5.0 mph 14.0 mph 63% 0.00 in
01:09 31.6 °F 20.1 °F 30.10 in NNW 7.0 mph 19.0 mph 62% 0.00 in
01:14 31.5 °F 19.2 °F 30.10 in NNW 8.0 mph 19.0 mph 60% 0.00 in
01:19 31.4 °F 18.7 °F 30.11 in NNW 7.0 mph 17.0 mph 59% 0.00 in
01:24 31.2 °F 18.5 °F 30.11 in NNW 7.0 mph 15.0 mph 59% 0.00 in
01:29 31.1 °F 18.0 °F 30.11 in NNW 6.0 mph 14.0 mph 58% 0.00 in
01:34 31.1 °F 18.4 °F 30.12 in NNW 7.0 mph 15.0 mph 59% 0.00 in
01:39 30.9 °F 17.4 °F 30.12 in NNW 7.0 mph 17.0 mph 57% 0.00 in
01:44 30.7 °F 16.4 °F 30.12 in North 13.0 mph 18.0 mph 55% 0.00 in
01:49 30.6 °F 16.7 °F 30.13 in NW 7.0 mph 20.0 mph 56% 0.00 in
01:54 30.4 °F 17.0 °F 30.14 in NNE 6.0 mph 16.0 mph 57% 0.00 in
01:59 30.1 °F 16.7 °F 30.14 in NW 8.0 mph 14.0 mph 57% 0.00 in
02:04 30.1 °F 15.9 °F 30.14 in NNW 3.0 mph 13.0 mph 55% 0.00 in
02:09 29.9 °F 15.3 °F 30.15 in NNW 7.0 mph 17.0 mph 54% 0.00 in
02:14 29.7 °F 15.1 °F 30.15 in NNW 7.0 mph 17.0 mph 54% 0.00 in
02:19 29.5 °F 14.9 °F 30.15 in NNW 8.0 mph 17.0 mph 54% 0.00 in
02:24 29.4 °F 14.8 °F 30.16 in NNW 8.0 mph 17.0 mph 54% 0.00 in
02:29 29.2 °F 15.0 °F 30.16 in NNW 7.0 mph 17.0 mph 55% 0.00 in
02:34 29.0 °F 14.4 °F 30.17 in North 6.0 mph 21.0 mph 54% 0.00 in
02:39 28.7 °F 13.7 °F 30.17 in NNE 8.0 mph 19.0 mph 53% 0.00 in
02:44 28.5 °F 13.9 °F 30.18 in NNW 9.0 mph 19.0 mph 54% 0.00 in
02:49 28.2 °F 14.1 °F 30.18 in NNW 5.0 mph 17.0 mph 55% 0.00 in
02:54 28.1 °F 13.6 °F 30.18 in NNW 9.0 mph 21.0 mph 54% 0.00 in
02:59 27.8 °F 13.7 °F 30.19 in NNW 12.0 mph 16.0 mph 55% 0.00 in
03:04 27.6 °F 13.9 °F 30.19 in North 9.0 mph 14.0 mph 56% 0.00 in
03:09 27.3 °F 13.2 °F 30.19 in NNW 5.0 mph 19.0 mph 55% 0.00 in
03:14 27.0 °F 13.0 °F 30.20 in NNW 8.0 mph 22.0 mph 55% 0.00 in
03:19 26.6 °F 13.4 °F 30.20 in NNW 7.0 mph 22.0 mph 57% 0.00 in
03:24 26.4 °F 12.8 °F 30.20 in NNW 6.0 mph 16.0 mph 56% 0.00 in
03:29 26.2 °F 13.0 °F 30.20 in NNW 7.0 mph 16.0 mph 57% 0.00 in
03:34 26.1 °F 13.3 °F 30.20 in NNW 7.0 mph 16.0 mph 58% 0.00 in
03:39 26.0 °F 13.6 °F 30.21 in NW 6.0 mph 14.0 mph 59% 0.00 in
03:44 25.8 °F 12.6 °F 30.21 in North 6.0 mph 16.0 mph 57% 0.00 in
03:49 25.6 °F 12.5 °F 30.21 in NNW 7.0 mph 16.0 mph 57% 0.00 in
03:54 25.4 °F 12.3 °F 30.22 in NNE 6.0 mph 12.0 mph 57% 0.00 in
03:59 25.1 °F 12.0 °F 30.22 in North 9.0 mph 18.0 mph 57% 0.00 in
04:04 24.9 °F 11.4 °F 30.22 in NW 5.0 mph 17.0 mph 56% 0.00 in
04:09 24.8 °F 11.7 °F 30.23 in NNE 7.0 mph 17.0 mph 57% 0.00 in
04:14 24.7 °F 12.0 °F 30.23 in NNW 4.0 mph 13.0 mph 58% 0.00 in
04:19 24.6 °F 12.3 °F 30.23 in NW 7.0 mph 15.0 mph 59% 0.00 in
04:24 24.6 °F 12.7 °F 30.24 in NW 6.0 mph 15.0 mph 60% 0.00 in
04:29 24.6 °F 13.4 °F 30.24 in NNW 6.0 mph 13.0 mph 62% 0.00 in
04:34 24.6 °F 14.9 °F 30.25 in NNW 7.0 mph 16.0 mph 66% 0.00 in
04:39 24.1 °F 15.1 °F 30.25 in NNW 7.0 mph 16.0 mph 68% 0.00 in
04:44 23.6 °F 14.6 °F 30.26 in North 10.0 mph 18.0 mph 68% 0.00 in
04:49 23.2 °F 13.9 °F 30.26 in North 8.0 mph 18.0 mph 67% 0.00 in
04:54 22.9 °F 12.5 °F 30.26 in NNW 7.0 mph 16.0 mph 64% 0.00 in
04:59 22.6 °F 10.0 °F 30.27 in NNW 10.0 mph 17.0 mph 58% 0.00 in
05:04 22.2 °F 8.5 °F 30.27 in NNW 11.0 mph 19.0 mph 55% 0.00 in
05:09 21.8 °F 6.0 °F 30.28 in North 11.0 mph 19.0 mph 50% 0.00 in
05:14 21.5 °F 5.7 °F 30.29 in NNW 6.0 mph 18.0 mph 50% 0.00 in
05:19 21.1 °F 4.9 °F 30.29 in North 10.0 mph 19.0 mph 49% 0.00 in
05:24 20.9 °F 4.3 °F 30.30 in North 8.0 mph 19.0 mph 48% 0.00 in
05:29 20.6 °F 4.4 °F 30.30 in North 10.0 mph 17.0 mph 49% 0.00 in
05:34 20.4 °F 5.1 °F 30.31 in North 8.0 mph 17.0 mph 51% 0.00 in
05:39 20.3 °F 5.5 °F 30.31 in North 7.0 mph 16.0 mph 52% 0.00 in
05:44 20.1 °F 4.8 °F 30.32 in North 8.0 mph 19.0 mph 51% 0.00 in
05:49 20.0 °F 4.3 °F 30.32 in NNE 3.0 mph 22.0 mph 50% 0.00 in
05:54 19.8 °F 4.6 °F 30.32 in North 8.0 mph 16.0 mph 51% 0.00 in
05:59 19.7 °F 4.9 °F 30.32 in NNW 5.0 mph 11.0 mph 52% 0.00 in
06:04 19.6 °F 4.8 °F 30.33 in North 12.0 mph 14.0 mph 52% 0.00 in
06:09 19.5 °F 5.1 °F 30.33 in NE 6.0 mph 12.0 mph 53% 0.00 in
06:19 19.4 °F 5.4 °F 30.34 in North 7.0 mph 12.0 mph 54% 0.00 in
06:24 19.4 °F 5.4 °F 30.34 in North 6.0 mph 13.0 mph 54% 0.00 in
06:29 19.3 °F 5.3 °F 30.34 in North 6.0 mph 13.0 mph 54% 0.00 in
06:34 19.4 °F 5.8 °F 30.34 in NNW 6.0 mph 15.0 mph 55% 0.00 in
06:39 19.2 °F 5.7 °F 30.35 in NNW 6.0 mph 15.0 mph 55% 0.00 in
06:44 19.3 °F 5.3 °F 30.36 in North 7.0 mph 18.0 mph 54% 0.00 in
06:49 19.2 °F 5.7 °F 30.36 in North 7.0 mph 18.0 mph 55% 0.00 in
06:54 19.1 °F 5.2 °F 30.36 in NNE 5.0 mph 15.0 mph 54% 0.00 in
06:59 18.9 °F 5.0 °F 30.36 in NNW 5.0 mph 14.0 mph 54% 0.00 in
07:04 18.9 °F 4.1 °F 30.37 in NNW 7.0 mph 20.0 mph 52% 0.00 in
07:09 18.8 °F 4.9 °F 30.37 in NW 9.0 mph 10.0 mph 54% 0.00 in
07:14 18.7 °F 4.8 °F 30.37 in North 10.0 mph 13.0 mph 54% 0.00 in
07:19 18.7 °F 4.4 °F 30.37 in NW 2.0 mph 14.0 mph 53% 0.00 in
07:24 18.6 °F 4.7 °F 30.37 in North 3.0 mph 12.0 mph 54% 0.00 in
07:29 18.5 °F 4.2 °F 30.38 in NNW 6.0 mph 16.0 mph 53% 0.00 in
07:34 18.4 °F 4.5 °F 30.39 in NNW 6.0 mph 16.0 mph 54% 0.00 in
07:39 18.4 °F 4.5 °F 30.39 in NNW 5.0 mph 14.0 mph 54% 0.00 in
07:44 18.5 °F 4.2 °F 30.39 in NNW 4.0 mph 15.0 mph 53% 0.00 in
07:49 18.5 °F 4.6 °F 30.39 in North 7.0 mph 13.0 mph 54% 0.00 in
07:54 18.6 °F 4.7 °F 30.40 in North 3.0 mph 13.0 mph 54% 0.00 in
07:59 18.7 °F 4.8 °F 30.40 in North 6.0 mph 13.0 mph 54% 0.00 in
08:04 18.8 °F 5.3 °F 30.40 in North 6.0 mph 13.0 mph 55% 0.00 in
08:09 18.9 °F 5.0 °F 30.41 in North 6.0 mph 12.0 mph 54% 0.00 in
08:14 18.9 °F 5.0 °F 30.41 in North 6.0 mph 12.0 mph 54% 0.00 in
08:19 19.0 °F 4.7 °F 30.41 in NNW 7.0 mph 12.0 mph 53% 0.00 in
08:24 19.1 °F 4.3 °F 30.42 in NW 7.0 mph 14.0 mph 52% 0.00 in
08:29 19.0 °F 3.4 °F 30.42 in NW 4.0 mph 16.0 mph 50% 0.00 in
08:34 19.1 °F 3.9 °F 30.42 in North 7.0 mph 16.0 mph 51% 0.00 in
08:39 19.3 °F 4.1 °F 30.42 in NNW 7.0 mph 14.0 mph 51% 0.00 in
08:44 19.9 °F 5.1 °F 30.43 in NNW 6.0 mph 14.0 mph 52% 0.00 in
08:49 20.1 °F 5.3 °F 30.43 in NW 3.0 mph 12.0 mph 52% 0.00 in
08:54 20.0 °F 3.9 °F 30.43 in North 9.0 mph 15.0 mph 49% 0.00 in
08:59 20.1 °F 4.4 °F 30.43 in North 10.0 mph 12.0 mph 50% 0.00 in
09:04 20.3 °F 5.0 °F 30.44 in NNE 6.0 mph 11.0 mph 51% 0.00 in
09:09 20.4 °F 5.1 °F 30.44 in North 6.0 mph 12.0 mph 51% 0.00 in
09:14 20.3 °F 3.2 °F 30.44 in North 7.0 mph 17.0 mph 47% 0.00 in
09:19 20.8 °F 3.7 °F 30.45 in North 7.0 mph 17.0 mph 47% 0.00 in
09:24 20.7 °F 4.1 °F 30.45 in NNW 6.0 mph 11.0 mph 48% 0.00 in
09:29 20.6 °F 4.0 °F 30.45 in NNE 4.0 mph 12.0 mph 48% 0.00 in
09:34 21.0 °F 4.4 °F 30.46 in NNW 10.0 mph 14.0 mph 48% 0.00 in
09:39 21.2 °F 4.5 °F 30.46 in NNW 7.0 mph 14.0 mph 48% 0.00 in
09:44 21.3 °F 4.6 °F 30.46 in NNW 7.0 mph 16.0 mph 48% 0.00 in
09:49 21.3 °F 3.2 °F 30.46 in North 7.0 mph 16.0 mph 45% 0.00 in
09:54 21.3 °F 4.2 °F 30.47 in NNW 7.0 mph 13.0 mph 47% 0.00 in
09:59 21.8 °F 4.6 °F 30.47 in NNW 5.0 mph 11.0 mph 47% 0.00 in
10:04 21.5 °F 4.8 °F 30.48 in NNW 7.0 mph 15.0 mph 48% 0.00 in
10:09 21.4 °F 4.7 °F 30.48 in NW 5.0 mph 14.0 mph 48% 0.00 in
10:14 21.7 °F 4.5 °F 30.48 in NNW 7.0 mph 14.0 mph 47% 0.00 in
10:19 21.6 °F 4.9 °F 30.48 in NNW 6.0 mph 14.0 mph 48% 0.00 in
10:24 21.7 °F 5.5 °F 30.48 in NW 7.0 mph 13.0 mph 49% 0.00 in
10:29 22.2 °F 5.5 °F 30.49 in NNW 10.0 mph 12.0 mph 48% 0.00 in
10:34 22.4 °F 6.1 °F 30.49 in North 6.0 mph 15.0 mph 49% 0.00 in
10:39 21.7 °F 5.5 °F 30.49 in NNE 5.0 mph 13.0 mph 49% 0.00 in
10:44 21.7 °F 5.9 °F 30.49 in North 7.0 mph 13.0 mph 50% 0.00 in
10:49 22.7 °F 6.4 °F 30.50 in North 6.0 mph 12.0 mph 49% 0.00 in
10:54 22.1 °F 4.0 °F 30.49 in North 8.0 mph 14.0 mph 45% 0.00 in
10:59 22.1 °F 5.4 °F 30.50 in NW 7.0 mph 13.0 mph 48% 0.00 in
11:04 22.4 °F 6.1 °F 30.50 in North 4.0 mph 10.0 mph 49% 0.00 in
11:09 23.2 °F 7.7 °F 30.50 in WNW 5.0 mph 7.0 mph 51% 0.00 in
11:14 23.0 °F 6.2 °F 30.50 in NW 4.0 mph 10.0 mph 48% 0.00 in
11:19 23.0 °F 5.3 °F 30.50 in NNW 5.0 mph 10.0 mph 46% 0.00 in
11:24 23.3 °F 7.4 °F 30.51 in NW 5.0 mph 18.0 mph 50% 0.00 in
11:29 23.0 °F 4.3 °F 30.51 in NW 6.0 mph 18.0 mph 44% 0.00 in
11:34 22.7 °F 3.5 °F 30.51 in NW 2.0 mph 10.0 mph 43% 0.00 in
11:39 23.0 °F 2.8 °F 30.51 in NW 7.0 mph 15.0 mph 41% 0.00 in
11:44 22.7 °F 2.0 °F 30.51 in NNW 3.0 mph 15.0 mph 40% 0.00 in
11:49 23.9 °F 4.1 °F 30.51 in NW 7.0 mph 15.0 mph 42% 0.00 in
11:54 23.2 °F 2.9 °F 30.51 in NNW 6.0 mph 12.0 mph 41% 0.00 in
11:59 22.7 °F 3.0 °F 30.51 in North 6.0 mph 12.0 mph 42% 0.00 in
12:04 23.2 °F 2.9 °F 30.51 in North 3.0 mph 14.0 mph 41% 0.00 in
12:09 23.7 °F 4.9 °F 30.51 in North 6.0 mph 10.0 mph 44% 0.00 in
12:14 24.3 °F 6.0 °F 30.51 in WSW 6.0 mph 9.0 mph 45% 0.00 in
12:19 24.2 °F 6.4 °F 30.52 in NNE 5.0 mph 9.0 mph 46% 0.00 in
12:24 24.8 °F 7.4 °F 30.52 in NNW 5.0 mph 11.0 mph 47% 0.00 in
12:29 25.6 °F 7.2 °F 30.52 in NW 5.0 mph 15.0 mph 45% 0.00 in
12:34 24.9 °F 7.5 °F 30.52 in NW 6.0 mph 15.0 mph 47% 0.00 in
12:39 24.8 °F 6.9 °F 30.52 in NNW 6.0 mph 13.0 mph 46% 0.00 in
12:44 25.1 °F 7.7 °F 30.52 in NW 6.0 mph 13.0 mph 47% 0.00 in
12:49 25.8 °F 7.8 °F 30.52 in NW 5.0 mph 13.0 mph 46% 0.00 in
12:54 25.7 °F 8.7 °F 30.52 in NW 5.0 mph 13.0 mph 48% 0.00 in
12:59 25.6 °F 8.6 °F 30.52 in NNW 5.0 mph 13.0 mph 48% 0.00 in
13:04 26.1 °F 7.1 °F 30.53 in West 8.0 mph 17.0 mph 44% 0.00 in
13:09 24.8 °F 6.4 °F 30.52 in WSW 4.0 mph 8.0 mph 45% 0.00 in
13:14 25.9 °F 4.9 °F 30.52 in NNW 7.0 mph 13.0 mph 40% 0.00 in
13:19 25.5 °F 6.1 °F 30.52 in WNW 4.0 mph 12.0 mph 43% 0.00 in
13:24 26.1 °F 5.0 °F 30.53 in NNW 4.0 mph 14.0 mph 40% 0.00 in
13:29 24.8 °F 4.9 °F 30.53 in NNW 6.0 mph 14.0 mph 42% 0.00 in
13:34 24.8 °F 5.9 °F 30.53 in NNW 6.0 mph 14.0 mph 44% 0.00 in
13:39 25.0 °F 6.1 °F 30.52 in NNW 6.0 mph 12.0 mph 44% 0.00 in
13:44 26.2 °F 8.7 °F 30.53 in NW 6.0 mph 14.0 mph 47% 0.00 in
13:49 25.8 °F 6.3 °F 30.53 in NW 6.0 mph 14.0 mph 43% 0.00 in
13:54 25.7 °F 6.8 °F 30.53 in NNW 6.0 mph 14.0 mph 44% 0.00 in
13:59 26.8 °F 7.8 °F 30.54 in WNW 7.0 mph 16.0 mph 44% 0.00 in
14:04 25.6 °F 4.6 °F 30.53 in NNW 5.0 mph 10.0 mph 40% 0.00 in
14:09 26.5 °F 8.5 °F 30.53 in NW 7.0 mph 12.0 mph 46% 0.00 in
14:14 26.6 °F 7.6 °F 30.53 in NW 7.0 mph 13.0 mph 44% 0.00 in
14:19 26.1 °F 7.6 °F 30.53 in North 3.0 mph 12.0 mph 45% 0.00 in
14:24 26.3 °F 8.3 °F 30.53 in NW 7.0 mph 9.0 mph 46% 0.00 in
14:29 28.1 °F 9.0 °F 30.53 in NNW 4.0 mph 14.0 mph 44% 0.00 in
14:34 26.4 °F 6.4 °F 30.53 in NNW 6.0 mph 14.0 mph 42% 0.00 in
14:39 26.9 °F 6.8 °F 30.53 in NNW 6.0 mph 12.0 mph 42% 0.00 in
14:44 26.2 °F 6.2 °F 30.52 in NNW 6.0 mph 12.0 mph 42% 0.00 in
14:49 27.4 °F 6.8 °F 30.52 in NNW 5.0 mph 14.0 mph 41% 0.00 in
14:54 27.0 °F 7.4 °F 30.52 in NW 6.0 mph 11.0 mph 43% 0.00 in
14:59 27.4 °F 8.3 °F 30.52 in NNW 2.0 mph 11.0 mph 44% 0.00 in
15:04 27.6 °F 10.9 °F 30.52 in NW 5.0 mph 11.0 mph 49% 0.00 in
15:09 27.4 °F 6.8 °F 30.52 in NW 5.0 mph 15.0 mph 41% 0.00 in
15:14 26.8 °F 6.7 °F 30.52 in NNW 6.0 mph 15.0 mph 42% 0.00 in
15:19 27.1 °F 5.9 °F 30.52 in NNW 7.0 mph 17.0 mph 40% 0.00 in
15:24 26.8 °F 6.2 °F 30.52 in NNW 7.0 mph 17.0 mph 41% 0.00 in
15:29 27.4 °F 7.8 °F 30.52 in NW 6.0 mph 11.0 mph 43% 0.00 in
15:34 27.2 °F 8.1 °F 30.52 in NW 8.0 mph 13.0 mph 44% 0.00 in
15:39 27.8 °F 7.1 °F 30.52 in NW 7.0 mph 14.0 mph 41% 0.00 in
15:44 27.5 °F 7.4 °F 30.52 in WNW 4.0 mph 12.0 mph 42% 0.00 in
15:49 28.1 °F 9.0 °F 30.52 in NW 6.0 mph 12.0 mph 44% 0.00 in
15:54 28.7 °F 9.5 °F 30.52 in NW 5.0 mph 12.0 mph 44% 0.00 in
15:59 28.7 °F 9.5 °F 30.51 in West 9.0 mph 12.0 mph 44% 0.00 in
16:04 28.2 °F 6.9 °F 30.51 in North 4.0 mph 13.0 mph 40% 0.00 in
16:09 27.6 °F 6.9 °F 30.51 in NW 7.0 mph 14.0 mph 41% 0.00 in
16:14 28.2 °F 8.5 °F 30.51 in NW 6.0 mph 14.0 mph 43% 0.00 in
16:19 28.4 °F 10.2 °F 30.52 in WNW 6.0 mph 14.0 mph 46% 0.00 in
16:24 28.1 °F 8.4 °F 30.52 in WNW 6.0 mph 17.0 mph 43% 0.00 in
16:29 27.8 °F 6.0 °F 30.52 in NW 7.0 mph 10.0 mph 39% 0.00 in
16:34 28.3 °F 8.1 °F 30.51 in NW 2.0 mph 11.0 mph 42% 0.00 in
16:39 28.7 °F 7.9 °F 30.52 in WNW 6.0 mph 12.0 mph 41% 0.00 in
16:44 28.6 °F 7.8 °F 30.52 in NW 5.0 mph 12.0 mph 41% 0.00 in
16:49 28.2 °F 6.4 °F 30.52 in NW 5.0 mph 12.0 mph 39% 0.00 in
16:54 27.8 °F 6.6 °F 30.52 in NNW 6.0 mph 11.0 mph 40% 0.00 in
16:59 28.4 °F 8.2 °F 30.52 in NNW 4.0 mph 10.0 mph 42% 0.00 in
17:04 28.1 °F 7.4 °F 30.52 in NNW 5.0 mph 12.0 mph 41% 0.00 in
17:09 28.1 °F 6.8 °F 30.52 in North 6.0 mph 11.0 mph 40% 0.00 in
17:14 27.9 °F 6.7 °F 30.52 in NNW 5.0 mph 11.0 mph 40% 0.00 in
17:19 27.4 °F 6.2 °F 30.53 in NNW 6.0 mph 13.0 mph 40% 0.00 in
17:24 27.8 °F 8.2 °F 30.53 in NW 6.0 mph 13.0 mph 43% 0.00 in
17:29 27.8 °F 7.6 °F 30.53 in NNW 4.0 mph 12.0 mph 42% 0.00 in
17:34 27.9 °F 6.7 °F 30.52 in WNW 5.0 mph 9.0 mph 40% 0.00 in
17:39 27.9 °F 6.1 °F 30.53 in WNW 8.0 mph 13.0 mph 39% 0.00 in
17:44 27.7 °F 5.9 °F 30.53 in NNW 5.0 mph 9.0 mph 39% 0.00 in
17:49 27.6 °F 5.8 °F 30.52 in NW 5.0 mph 12.0 mph 39% 0.00 in
17:54 27.2 °F 6.0 °F 30.53 in NW 7.0 mph 17.0 mph 40% 0.00 in
17:59 26.9 °F 5.2 °F 30.52 in NW 7.0 mph 17.0 mph 39% 0.00 in
18:04 26.9 °F 4.6 °F 30.53 in NNW 8.0 mph 11.0 mph 38% 0.00 in
18:09 26.6 °F 4.9 °F 30.53 in West 5.0 mph 13.0 mph 39% 0.00 in
18:14 26.7 °F 6.1 °F 30.53 in NW 3.0 mph 11.0 mph 41% 0.00 in
18:19 26.6 °F 6.0 °F 30.53 in NNW 6.0 mph 13.0 mph 41% 0.00 in
18:24 26.7 °F 6.6 °F 30.54 in NNW 5.0 mph 13.0 mph 42% 0.00 in
18:29 26.8 °F 6.7 °F 30.54 in NW 4.0 mph 11.0 mph 42% 0.00 in
18:34 26.6 °F 6.6 °F 30.54 in NW 4.0 mph 11.0 mph 42% 0.00 in
18:39 26.3 °F 6.3 °F 30.54 in NW 6.0 mph 13.0 mph 42% 0.00 in
18:44 26.3 °F 6.3 °F 30.54 in North 3.0 mph 10.0 mph 42% 0.00 in
18:49 26.1 °F 6.1 °F 30.54 in NNW 7.0 mph 11.0 mph 42% 0.00 in
18:54 26.0 °F 6.0 °F 30.54 in NW 5.0 mph 11.0 mph 42% 0.00 in
18:59 25.9 °F 6.4 °F 30.54 in NNW 4.0 mph 8.0 mph 43% 0.00 in
19:04 25.9 °F 6.4 °F 30.53 in NW 7.0 mph 13.0 mph 43% 0.00 in
19:09 25.8 °F 6.3 °F 30.54 in NW 5.0 mph 13.0 mph 43% 0.00 in
19:14 25.6 °F 6.2 °F 30.54 in NNW 3.0 mph 9.0 mph 43% 0.00 in
19:19 25.3 °F 5.9 °F 30.54 in NW 4.0 mph 7.0 mph 43% 0.00 in
19:24 25.1 °F 6.7 °F 30.54 in NNW 3.0 mph 7.0 mph 45% 0.00 in
19:29 25.2 °F 6.8 °F 30.54 in NW 3.0 mph 9.0 mph 45% 0.00 in
19:34 25.2 °F 6.8 °F 30.54 in WNW 2.0 mph 6.0 mph 45% 0.00 in
19:39 25.1 °F 6.2 °F 30.54 in NW 1.0 mph 8.0 mph 44% 0.00 in
19:44 24.9 °F 6.5 °F 30.54 in NNW 3.0 mph 5.0 mph 45% 0.00 in
19:49 24.8 °F 6.4 °F 30.54 in NNW 2.0 mph 7.0 mph 45% 0.00 in
19:54 24.8 °F 6.9 °F 30.54 in NNW 4.0 mph 7.0 mph 46% 0.00 in
19:59 24.8 °F 6.4 °F 30.54 in NW 4.0 mph 9.0 mph 45% 0.00 in
20:04 24.6 °F 6.7 °F 30.54 in NW 3.0 mph 9.0 mph 46% 0.00 in
20:09 24.5 °F 6.6 °F 30.54 in NW 2.0 mph 4.0 mph 46% 0.00 in
20:14 24.4 °F 6.6 °F 30.54 in WNW 2.0 mph 4.0 mph 46% 0.00 in
20:19 24.4 °F 7.0 °F 30.54 in NW 2.0 mph 5.0 mph 47% 0.00 in
20:24 24.3 °F 6.9 °F 30.54 in NNW 2.0 mph 4.0 mph 47% 0.00 in
20:29 24.1 °F 7.2 °F 30.54 in Calm   4.0 mph 48% 0.00 in
20:34 23.9 °F 7.9 °F 30.54 in NW 1.0 mph 3.0 mph 50% 0.00 in
20:39 23.8 °F 7.8 °F 30.54 in NW 1.0 mph 3.0 mph 50% 0.00 in
20:44 23.8 °F 7.4 °F 30.54 in Calm   2.0 mph 49% 0.00 in
20:49 23.7 °F 7.7 °F 30.54 in Calm     50% 0.00 in
20:54 23.4 °F 7.5 °F 30.54 in Calm     50% 0.00 in
20:59 23.3 °F 7.4 °F 30.55 in Calm     50% 0.00 in
21:04 23.3 °F 7.4 °F 30.55 in Calm     50% 0.00 in
21:09 23.1 °F 7.6 °F 30.55 in Calm     51% 0.00 in
21:14 22.8 °F 7.8 °F 30.55 in Calm     52% 0.00 in
21:19 22.7 °F 7.7 °F 30.55 in Calm     52% 0.00 in
21:24 22.5 °F 7.9 °F 30.55 in Calm     53% 0.00 in
21:29 22.2 °F 8.1 °F 30.56 in Calm     54% 0.00 in
21:34 22.0 °F 7.9 °F 30.56 in Calm     54% 0.00 in
21:39 22.0 °F 7.9 °F 30.56 in Calm     54% 0.00 in
21:44 21.8 °F 8.1 °F 30.56 in Calm     55% 0.00 in
21:49 21.8 °F 8.5 °F 30.56 in Calm     56% 0.00 in
21:54 22.0 °F 8.7 °F 30.56 in Calm     56% 0.00 in
21:59 21.7 °F 9.2 °F 30.56 in Calm     58% 0.00 in
22:04 21.5 °F 9.4 °F 30.56 in Calm     59% 0.00 in
22:09 21.1 °F 9.4 °F 30.56 in Calm     60% 0.00 in
22:14 20.9 °F 9.2 °F 30.56 in Calm     60% 0.00 in
22:19 20.9 °F 9.2 °F 30.56 in Calm     60% 0.00 in
22:24 20.8 °F 9.5 °F 30.57 in Calm     61% 0.00 in
22:29 20.8 °F 9.8 °F 30.56 in Calm     62% 0.00 in
22:34 20.6 °F 9.6 °F 30.56 in Calm     62% 0.00 in
22:39 20.4 °F 9.8 °F 30.56 in Calm     63% 0.00 in
22:44 20.6 °F 10.3 °F 30.56 in Calm     64% 0.00 in
22:49 20.3 °F 10.1 °F 30.57 in Calm     64% 0.00 in
22:54 20.0 °F 10.5 °F 30.56 in Calm     66% 0.00 in
22:59 19.9 °F 10.7 °F 30.56 in Calm     67% 0.00 in
23:04 19.9 °F 10.7 °F 30.57 in Calm     67% 0.00 in
23:09 19.7 °F 10.8 °F 30.57 in Calm     68% 0.00 in
23:14 19.4 °F 10.6 °F 30.57 in Calm     68% 0.00 in
23:19 19.4 °F 10.9 °F 30.56 in Calm     69% 0.00 in
23:24 19.4 °F 11.2 °F 30.56 in Calm     70% 0.00 in
23:29 19.4 °F 11.5 °F 30.56 in Calm     71% 0.00 in
23:34 19.1 °F 10.9 °F 30.56 in Calm     70% 0.00 in
23:39 19.1 °F 11.2 °F 30.56 in Calm     71% 0.00 in
23:44 19.4 °F 11.5 °F 30.56 in Calm     71% 0.00 in
23:49 19.0 °F 11.1 °F 30.56 in Calm     71% 0.00 in
23:54 19.3 °F 11.4 °F 30.56 in Calm     71% 0.00 in
Buffalo, New York, USA
Compliments of Weather Underground - 2.5 mb